Time;durP1;ratioP1;P1;durP2;ratioP2;P2;SDS_P1;SDS_P2;PMS_P1;PMS_P2;Temp;Humidity;BMP_temperature;BMP_pressure;BME280_temperature;BME280_humidity;BME280_pressure;Samples;Min_cycle;Max_cycle;Signal;HPM_P1;HPM_P2
2021/04/08 00:00:09;;;;;;;9.95;5.15;;;0.90;99.90;;;;;;5090975;28;20042;-75
2021/04/08 00:02:35;;;;;;;10.75;5.95;;;0.80;99.90;;;;;;5091048;28;20039;-75
2021/04/08 00:05:00;;;;;;;9.40;5.43;;;0.80;99.90;;;;;;5090987;28;20020;-75
2021/04/08 00:07:26;;;;;;;9.95;5.82;;;0.80;99.90;;;;;;5091063;28;20031;-75
2021/04/08 00:09:51;;;;;;;10.50;4.95;;;0.80;99.90;;;;;;5091109;28;20020;-75
2021/04/08 00:12:17;;;;;;;7.32;4.82;;;0.80;99.90;;;;;;5090998;28;20024;-75
2021/04/08 00:14:43;;;;;;;7.05;4.32;;;0.80;99.90;;;;;;5091224;28;20114;-75
2021/04/08 00:17:08;;;;;;;11.07;5.25;;;0.80;99.90;;;;;;5091008;28;20119;-75
2021/04/08 00:19:34;;;;;;;8.75;5.72;;;0.80;99.90;;;;;;5092371;28;20031;-75
2021/04/08 00:21:59;;;;;;;9.93;5.10;;;0.80;99.90;;;;;;5091069;28;20030;-75
2021/04/08 00:24:25;;;;;;;12.23;5.45;;;0.80;99.90;;;;;;5090698;28;20459;-75
2021/04/08 00:26:51;;;;;;;9.15;5.40;;;0.70;99.90;;;;;;5090708;28;20051;-75
2021/04/08 00:29:17;;;;;;;9.18;5.03;;;0.70;99.90;;;;;;5090665;28;20397;-75
2021/04/08 00:31:43;;;;;;;10.35;5.43;;;0.80;99.90;;;;;;5090498;28;20464;-75
2021/04/08 00:34:09;;;;;;;7.57;5.03;;;0.80;99.90;;;;;;5090353;28;20080;-75
2021/04/08 00:36:36;;;;;;;8.50;5.45;;;0.80;99.90;;;;;;5090452;28;20028;-75
2021/04/08 00:39:02;;;;;;;10.63;5.45;;;0.80;99.90;;;;;;5090427;28;20094;-74
2021/04/08 00:41:28;;;;;;;10.45;5.93;;;0.80;99.90;;;;;;5090351;28;20477;-75
2021/04/08 00:43:56;;;;;;;10.77;5.05;;;0.80;99.90;;;;;;5090290;28;20054;-75
2021/04/08 00:46:22;;;;;;;8.70;5.78;;;0.90;99.90;;;;;;5090104;28;20027;-75
2021/04/08 00:48:48;;;;;;;8.25;5.15;;;0.90;99.90;;;;;;5090147;28;20027;-76
2021/04/08 00:51:13;;;;;;;8.95;5.10;;;0.90;99.90;;;;;;5090173;28;20461;-76
2021/04/08 00:53:39;;;;;;;8.63;5.88;;;0.90;99.90;;;;;;5089980;28;20024;-75
2021/04/08 00:56:07;;;;;;;10.38;5.13;;;0.90;99.90;;;;;;5090156;28;20020;-75
2021/04/08 00:58:33;;;;;;;7.28;5.15;;;0.80;99.90;;;;;;5090033;28;20034;-75
2021/04/08 01:00:59;;;;;;;8.25;5.70;;;0.80;99.90;;;;;;5090099;28;20020;-76
2021/04/08 01:03:25;;;;;;;12.40;5.55;;;0.80;99.90;;;;;;5089944;28;20020;-76
2021/04/08 01:05:51;;;;;;;10.77;5.63;;;0.80;99.90;;;;;;5090029;28;20472;-75
2021/04/08 01:08:16;;;;;;;12.27;6.07;;;0.90;99.90;;;;;;5090111;28;20389;-75
2021/04/08 01:10:44;;;;;;;10.45;5.72;;;0.90;99.90;;;;;;5089958;28;20039;-76
2021/04/08 01:13:12;;;;;;;8.90;5.40;;;0.90;99.90;;;;;;5089696;28;20071;-75
2021/04/08 01:15:39;;;;;;;10.13;5.72;;;0.90;99.90;;;;;;5089871;28;20033;-75
2021/04/08 01:18:33;;;;;;;8.20;5.25;;;0.80;99.90;;;;;;5089770;28;20027;-75
2021/04/08 01:21:17;;;;;;;9.23;5.55;;;0.90;99.90;;;;;;5089723;28;20031;-76
2021/04/08 01:24:20;;;;;;;9.32;6.28;;;0.80;99.90;;;;;;5089450;28;20020;-75
2021/04/08 01:27:05;;;;;;;;;;;0.90;99.90;;;;;;5090027;28;20483;-74
2021/04/08 01:30:16;;;;;;;8.77;5.32;;;0.80;99.90;;;;;;5089504;28;19965;-75
2021/04/08 01:32:46;;;;;;;10.68;5.07;;;0.80;99.90;;;;;;5089172;28;20130;-75
2021/04/08 01:35:13;;;;;;;9.90;6.28;;;0.80;99.90;;;;;;5089365;28;20032;-75
2021/04/08 01:38:41;;;;;;;6.78;5.00;;;0.90;99.90;;;;;;5089258;28;20039;-75
2021/04/08 01:41:08;;;;;;;9.38;5.20;;;0.80;99.90;;;;;;5056061;28;20127;-75
2021/04/08 01:43:42;;;;;;;11.63;5.10;;;0.90;99.90;;;;;;5090403;28;20027;-75
2021/04/08 01:46:09;;;;;;;10.65;5.25;;;0.90;99.90;;;;;;5089473;28;20077;-75
2021/04/08 01:48:37;;;;;;;6.82;5.10;;;0.90;99.90;;;;;;5089078;28;20114;-76
2021/04/08 01:51:05;;;;;;;9.82;4.80;;;0.80;99.90;;;;;;5089026;28;20047;-75
2021/04/08 01:53:39;;;;;;;10.73;5.20;;;0.80;99.90;;;;;;5088916;28;20528;-76
2021/04/08 01:56:07;;;;;;;11.10;5.45;;;0.80;99.90;;;;;;5088996;28;20081;-76
2021/04/08 01:58:33;;;;;;;12.38;5.10;;;0.80;99.90;;;;;;5088801;28;20031;-75
2021/04/08 02:00:59;;;;;;;9.50;4.50;;;0.80;99.90;;;;;;5088845;28;20077;-75
2021/04/08 02:03:26;;;;;;;7.28;4.70;;;0.80;99.90;;;;;;5088721;28;20389;-75
2021/04/08 02:05:53;;;;;;;7.45;4.50;;;0.80;99.90;;;;;;5089052;28;20449;-75
2021/04/08 02:08:20;;;;;;;7.20;3.85;;;0.80;99.90;;;;;;5088675;28;20058;-75
2021/04/08 02:10:46;;;;;;;9.82;4.70;;;0.80;99.90;;;;;;5088665;28;20511;-75
2021/04/08 02:13:14;;;;;;;8.00;4.10;;;0.90;99.90;;;;;;5088581;28;20034;-75
2021/04/08 02:15:43;;;;;;;8.77;4.60;;;0.90;99.90;;;;;;5088596;28;20119;-75
2021/04/08 02:18:13;;;;;;;6.90;4.15;;;0.90;99.90;;;;;;5088492;28;20074;-75
2021/04/08 02:20:38;;;;;;;9.73;5.00;;;0.90;99.90;;;;;;5088487;28;20024;-75
2021/04/08 02:23:05;;;;;;;8.25;4.45;;;1.00;99.90;;;;;;5088425;28;20439;-76
2021/04/08 02:25:33;;;;;;;7.82;5.07;;;0.90;99.90;;;;;;5088728;28;20109;-75
2021/04/08 02:28:01;;;;;;;9.25;5.53;;;0.90;99.90;;;;;;5088460;28;20048;-75
2021/04/08 02:30:27;;;;;;;8.38;5.30;;;0.80;99.90;;;;;;5088332;28;20066;-75
2021/04/08 02:32:54;;;;;;;9.50;5.20;;;0.70;99.90;;;;;;5088133;28;20046;-75
2021/04/08 02:35:22;;;;;;;9.60;5.18;;;0.70;99.90;;;;;;5088583;28;20078;-75
2021/04/08 02:37:49;;;;;;;7.38;4.63;;;0.70;99.90;;;;;;5088295;28;20028;-75
2021/04/08 02:40:18;;;;;;;8.25;4.38;;;0.80;99.90;;;;;;5088135;28;20032;-75
2021/04/08 02:42:44;;;;;;;8.90;4.72;;;0.80;99.90;;;;;;5088192;28;20024;-75
2021/04/08 02:45:10;;;;;;;9.05;5.15;;;0.80;99.90;;;;;;5088229;28;20076;-75
2021/04/08 02:47:37;;;;;;;7.13;4.68;;;0.90;99.90;;;;;;5088129;28;20021;-75
2021/04/08 02:50:05;;;;;;;9.18;4.32;;;0.90;99.90;;;;;;5088213;28;20020;-75
2021/04/08 02:52:41;;;;;;;6.00;4.43;;;0.90;99.90;;;;;;5088049;28;20031;-75
2021/04/08 02:55:19;;;;;;;6.55;4.10;;;1.00;99.90;;;;;;5088172;28;20028;-75
2021/04/08 02:57:48;;;;;;;7.38;4.43;;;1.00;99.90;;;;;;5088039;28;20031;-74
2021/04/08 03:00:14;;;;;;;9.93;4.72;;;1.00;99.90;;;;;;5089516;28;20052;-75
2021/04/08 03:02:43;;;;;;;10.00;5.32;;;1.00;99.90;;;;;;5087942;28;20020;-75
2021/04/08 03:05:10;;;;;;;9.57;4.80;;;1.00;99.90;;;;;;5088112;28;20027;-75
2021/04/08 03:07:46;;;;;;;8.70;5.07;;;1.00;99.90;;;;;;5087937;28;20059;-75
2021/04/08 03:10:14;;;;;;;7.85;5.13;;;0.90;99.90;;;;;;5089455;28;20570;-75
2021/04/08 03:12:50;;;;;;;10.02;5.63;;;0.90;99.90;;;;;;5091936;28;20028;-75
2021/04/08 03:15:27;;;;;;;9.98;6.15;;;0.80;99.90;;;;;;5092009;28;20024;-75
2021/04/08 03:17:55;;;;;;;10.75;6.32;;;0.70;99.90;;;;;;5091920;28;20173;-74
2021/04/08 03:20:21;;;;;;;10.27;6.00;;;0.60;99.90;;;;;;5091880;28;20516;-75
2021/04/08 03:22:50;;;;;;;9.57;6.07;;;0.60;99.90;;;;;;5091749;28;20101;-75
2021/04/08 03:25:16;;;;;;;9.73;6.00;;;0.50;99.90;;;;;;5091804;28;20024;-75
2021/04/08 03:27:42;;;;;;;11.40;6.20;;;0.50;99.90;;;;;;5091792;28;20028;-74
2021/04/08 03:30:13;;;;;;;12.38;6.88;;;0.40;99.90;;;;;;5091720;28;20032;-75
2021/04/08 03:32:39;;;;;;;11.57;6.82;;;0.30;99.90;;;;;;5091468;28;20031;-75
2021/04/08 03:35:10;;;;;;;14.70;6.57;;;0.30;99.90;;;;;;5091648;28;20422;-75
2021/04/08 03:37:37;;;;;;;12.23;6.53;;;0.30;99.90;;;;;;5091551;28;20059;-74
2021/04/08 03:40:04;;;;;;;12.73;6.50;;;0.30;99.90;;;;;;5091376;28;20517;-75
2021/04/08 03:42:30;;;;;;;11.75;6.57;;;0.30;99.90;;;;;;5091280;28;20393;-74
2021/04/08 03:44:55;;;;;;;10.93;6.93;;;0.40;99.90;;;;;;5091359;28;20024;-74
2021/04/08 03:47:22;;;;;;;9.60;5.90;;;0.40;99.90;;;;;;5091332;28;20024;-74
2021/04/08 03:49:50;;;;;;;12.45;6.82;;;0.50;99.90;;;;;;5091175;28;20035;-74
2021/04/08 03:52:17;;;;;;;14.05;6.07;;;0.60;99.90;;;;;;5091131;28;20056;-74
2021/04/08 03:54:44;;;;;;;12.52;6.05;;;0.60;99.90;;;;;;5091213;28;20028;-74
2021/04/08 03:57:17;;;;;;;14.50;7.75;;;0.70;99.90;;;;;;5091150;28;20024;-74
2021/04/08 03:59:45;;;;;;;11.85;6.80;;;0.70;99.90;;;;;;5090867;28;20035;-74
2021/04/08 04:02:16;;;;;;;11.30;6.18;;;0.70;99.90;;;;;;5090963;28;20493;-74
2021/04/08 04:04:45;;;;;;;15.85;6.47;;;0.70;99.90;;;;;;5091139;28;20035;-74
2021/04/08 04:07:12;;;;;;;11.65;5.85;;;0.80;99.90;;;;;;5092317;28;20020;-74
2021/04/08 04:09:38;;;;;;;7.25;5.95;;;0.90;99.90;;;;;;5092522;28;20082;-74
2021/04/08 04:12:05;;;;;;;10.13;5.97;;;0.90;99.90;;;;;;5090809;28;20134;-74
2021/04/08 04:14:32;;;;;;;11.43;6.03;;;0.90;99.90;;;;;;5090888;28;20028;-74
2021/04/08 04:17:14;;;;;;;14.75;6.38;;;0.80;99.90;;;;;;5090714;28;20035;-74
2021/04/08 04:19:40;;;;;;;12.65;6.32;;;0.80;99.90;;;;;;5090697;28;20020;-74
2021/04/08 04:22:05;;;;;;;15.80;7.95;;;0.80;99.90;;;;;;5089418;28;20035;-74
2021/04/08 04:24:31;;;;;;;10.75;7.22;;;0.80;99.90;;;;;;5090621;28;20034;-74
2021/04/08 04:26:56;;;;;;;10.88;7.40;;;0.80;99.90;;;;;;5090635;28;20024;-74
2021/04/08 04:29:22;;;;;;;11.73;7.10;;;0.70;99.90;;;;;;5090547;28;20028;-74
2021/04/08 04:31:48;;;;;;;10.80;7.30;;;0.80;99.90;;;;;;5090447;28;20024;-74
2021/04/08 04:34:13;;;;;;;11.82;7.57;;;0.80;99.90;;;;;;5090267;28;20035;-74
2021/04/08 04:36:39;;;;;;;12.27;8.85;;;0.80;99.90;;;;;;5090465;28;20027;-75
2021/04/08 04:39:05;;;;;;;15.15;7.97;;;0.70;99.90;;;;;;5090286;28;20032;-74
2021/04/08 04:41:31;;;;;;;14.85;8.57;;;0.70;99.90;;;;;;5090402;28;20116;-74
2021/04/08 04:43:56;;;;;;;14.32;7.78;;;0.80;99.90;;;;;;5090483;28;20107;-74
2021/04/08 04:46:22;;;;;;;14.60;7.70;;;0.70;99.90;;;;;;5090521;28;20530;-74
2021/04/08 04:48:47;;;;;;;12.75;8.45;;;0.80;99.90;;;;;;5090282;28;20027;-74
2021/04/08 04:51:13;;;;;;;14.48;8.50;;;0.80;99.90;;;;;;5090442;28;20033;-74
2021/04/08 04:53:38;;;;;;;14.35;8.15;;;0.80;99.90;;;;;;5090043;28;20500;-74
2021/04/08 04:56:04;;;;;;;12.95;7.90;;;0.80;99.90;;;;;;5090044;28;20121;-74
2021/04/08 04:58:30;;;;;;;9.98;7.07;;;0.80;99.90;;;;;;5090028;28;20491;-74
2021/04/08 05:00:56;;;;;;;13.65;9.18;;;0.80;99.90;;;;;;5089883;28;20024;-74
2021/04/08 05:03:21;;;;;;;12.10;8.20;;;0.80;99.90;;;;;;5089847;28;20028;-74
2021/04/08 05:05:47;;;;;;;11.57;7.75;;;0.80;99.90;;;;;;5089862;28;20042;-74
2021/04/08 05:08:13;;;;;;;16.05;7.28;;;0.90;99.90;;;;;;5089831;28;20027;-74
2021/04/08 05:10:38;;;;;;;11.55;7.63;;;0.90;99.90;;;;;;5089755;28;20020;-74
2021/04/08 05:13:04;;;;;;;13.20;8.02;;;0.90;99.90;;;;;;5090003;28;20030;-74
2021/04/08 05:15:29;;;;;;;11.30;7.75;;;0.90;99.90;;;;;;5089740;28;20024;-75
2021/04/08 05:17:55;;;;;;;14.23;7.82;;;0.90;99.90;;;;;;5089571;28;20440;-74
2021/04/08 05:20:21;;;;;;;13.80;8.90;;;0.90;99.90;;;;;;5089514;28;20028;-74
2021/04/08 05:22:46;;;;;;;13.88;7.95;;;0.90;99.90;;;;;;5089406;28;20447;-74
2021/04/08 05:25:12;;;;;;;17.02;7.95;;;0.90;99.90;;;;;;5089444;28;20019;-74
2021/04/08 05:27:38;;;;;;;13.82;8.95;;;1.00;99.90;;;;;;5089441;28;20038;-74
2021/04/08 05:30:04;;;;;;;15.77;9.07;;;1.00;99.90;;;;;;5089443;28;20542;-74
2021/04/08 05:32:30;;;;;;;15.75;9.95;;;0.90;99.90;;;;;;5114805;22;20032;31
2021/04/08 05:34:55;;;;;;;19.10;10.93;;;0.80;99.90;;;;;;5028525;28;20054;-76
2021/04/08 05:37:21;;;;;;;19.23;11.27;;;0.80;99.90;;;;;;5029471;28;20029;-76
2021/04/08 05:39:47;;;;;;;17.08;10.50;;;0.80;99.90;;;;;;5029173;28;20483;-76
2021/04/08 05:42:12;;;;;;;18.08;10.85;;;0.80;99.90;;;;;;5029226;28;20376;-76
2021/04/08 05:44:38;;;;;;;19.92;11.10;;;0.80;99.90;;;;;;5030626;28;20026;-76
2021/04/08 05:47:04;;;;;;;21.83;10.68;;;0.80;99.90;;;;;;5031475;28;20032;-76
2021/04/08 05:49:29;;;;;;;16.77;10.20;;;0.80;99.90;;;;;;5030415;28;20028;-76
2021/04/08 05:51:55;;;;;;;14.68;10.00;;;0.80;99.90;;;;;;5029351;28;20148;-76
2021/04/08 05:54:20;;;;;;;17.38;10.38;;;0.80;99.90;;;;;;5030201;28;20403;-76
2021/04/08 05:56:46;;;;;;;12.88;7.88;;;0.70;99.90;;;;;;5030464;28;20111;-77
2021/04/08 05:59:11;;;;;;;13.82;8.15;;;0.70;99.90;;;;;;5028970;28;20091;-76
2021/04/08 06:01:37;;;;;;;14.82;8.23;;;0.80;99.90;;;;;;5030140;28;20021;-77
2021/04/08 06:04:03;;;;;;;11.93;8.00;;;0.70;99.90;;;;;;5029997;28;20101;-74
2021/04/08 06:06:28;;;;;;;15.50;8.40;;;0.80;99.90;;;;;;5030294;28;20029;-76
2021/04/08 06:08:54;;;;;;;11.27;7.70;;;0.70;99.90;;;;;;5029994;28;20101;-77
2021/04/08 06:11:19;;;;;;;12.18;8.43;;;0.70;99.90;;;;;;5028689;28;20490;-77
2021/04/08 06:13:47;;;;;;;11.65;7.72;;;0.70;99.90;;;;;;5029994;28;20017;-76
2021/04/08 06:16:13;;;;;;;12.18;7.82;;;0.70;99.90;;;;;;5031323;28;20049;-77
2021/04/08 06:18:39;;;;;;;14.23;7.28;;;0.80;99.90;;;;;;5028812;28;20451;-76
2021/04/08 06:21:05;;;;;;;11.18;7.43;;;0.80;99.90;;;;;;5029955;28;20095;-75
2021/04/08 06:23:30;;;;;;;11.93;6.80;;;0.90;99.90;;;;;;5030010;28;20032;-76
2021/04/08 06:25:57;;;;;;;9.63;6.40;;;1.00;99.90;;;;;;5028605;28;20049;-76
2021/04/08 06:28:23;;;;;;;11.02;7.05;;;1.20;99.90;;;;;;5028683;28;20458;-76
2021/04/08 06:30:49;;;;;;;14.90;6.90;;;1.40;99.90;;;;;;5031235;28;20025;-77
2021/04/08 06:33:14;;;;;;;7.93;6.20;;;1.50;99.90;;;;;;5028422;28;20495;-76
2021/04/08 06:35:40;;;;;;;13.20;7.03;;;1.50;99.90;;;;;;5031874;28;20038;-77
2021/04/08 06:38:06;;;;;;;11.02;6.75;;;1.50;99.90;;;;;;5030678;28;20025;-77
2021/04/08 06:40:32;;;;;;;10.35;5.85;;;1.50;99.90;;;;;;5029198;28;20026;-77
2021/04/08 06:42:59;;;;;;;8.95;6.13;;;1.60;99.90;;;;;;5030316;28;20021;-76
2021/04/08 06:45:28;;;;;;;10.85;5.88;;;1.60;99.90;;;;;;5027989;28;20021;-77
2021/04/08 06:48:28;;;;;;;10.20;5.28;;;1.50;99.90;;;;;;5028451;28;20104;-77
2021/04/08 06:50:54;;;;;;;8.07;5.72;;;1.60;99.90;;;;;;5028657;28;20044;-78
2021/04/08 06:53:20;;;;;;;10.18;5.15;;;1.60;99.90;;;;;;5028667;28;20086;-76
2021/04/08 06:55:48;;;;;;;11.35;5.40;;;1.60;99.90;;;;;;5029343;28;20113;-78
2021/04/08 06:58:14;;;;;;;9.90;5.18;;;1.50;99.90;;;;;;5029436;28;20034;-77
2021/04/08 07:00:41;;;;;;;8.77;5.75;;;1.60;99.90;;;;;;5030600;28;20030;-75
2021/04/08 07:03:08;;;;;;;7.75;5.25;;;1.60;99.90;;;;;;5031747;28;20026;-77
2021/04/08 07:05:34;;;;;;;10.25;5.45;;;1.60;99.90;;;;;;5029305;28;20048;-77
2021/04/08 07:08:00;;;;;;;9.63;5.70;;;1.60;99.90;;;;;;5029530;28;20026;-76
2021/04/08 07:10:26;;;;;;;12.70;6.18;;;1.70;99.90;;;;;;5030760;28;20024;-76
2021/04/08 07:12:55;;;;;;;7.88;5.32;;;1.80;99.90;;;;;;5034013;28;20084;-77
2021/04/08 07:15:22;;;;;;;10.88;5.90;;;1.90;99.90;;;;;;5030503;28;20032;-76
2021/04/08 07:17:48;;;;;;;12.48;5.95;;;2.10;99.90;;;;;;5028993;28;20029;-76
2021/04/08 07:20:14;;;;;;;9.57;5.15;;;2.30;99.90;;;;;;5028944;28;20121;-77
2021/04/08 07:22:39;;;;;;;8.18;5.07;;;2.60;99.90;;;;;;5029482;28;20060;-79
2021/04/08 07:25:25;;;;;;;8.75;5.20;;;2.70;99.90;;;;;;5030185;28;20013;-76
2021/04/08 07:27:51;;;;;;;10.23;5.95;;;2.50;99.90;;;;;;5028609;28;20176;-77
2021/04/08 07:30:20;;;;;;;10.48;5.85;;;2.40;99.90;;;;;;5029295;28;20501;-77
2021/04/08 07:32:58;;;;;;;11.77;6.47;;;2.20;99.90;;;;;;5029645;28;20080;-76
2021/04/08 07:35:24;;;;;;;9.80;6.28;;;2.10;99.90;;;;;;5028546;28;20033;-75
2021/04/08 07:37:58;;;;;;;15.23;6.43;;;1.90;99.90;;;;;;5028268;28;20021;-76
2021/04/08 07:40:26;;;;;;;15.45;7.57;;;1.60;99.90;;;;;;5028262;28;20029;-76
2021/04/08 07:42:52;;;;;;;19.38;7.15;;;1.50;99.90;;;;;;5028261;28;20113;-76
2021/04/08 07:45:33;;;;;;;11.13;5.75;;;1.50;99.90;;;;;;5029476;28;20022;-75
2021/04/08 07:48:04;;;;;;;15.07;6.25;;;1.70;99.90;;;;;;5028260;28;20022;-75
2021/04/08 07:50:31;;;;;;;10.27;6.40;;;1.70;99.90;;;;;;5028605;28;20087;-77
2021/04/08 07:52:58;;;;;;;11.68;6.55;;;1.90;99.90;;;;;;5028355;28;20402;-76
2021/04/08 07:55:29;;;;;;;8.75;6.15;;;1.90;99.90;;;;;;5027903;28;20398;-75
2021/04/08 07:57:55;;;;;;;9.80;6.10;;;1.90;99.90;;;;;;5031135;28;20064;-74
2021/04/08 08:00:32;;;;;;;16.33;7.30;;;1.70;99.90;;;;;;5031285;28;20060;-75
2021/04/08 08:03:05;;;;;;;11.10;6.65;;;1.80;99.90;;;;;;5032583;28;20032;-75
2021/04/08 08:05:36;;;;;;;8.27;6.38;;;1.90;99.90;;;;;;5033174;28;20507;-75
2021/04/08 08:08:17;;;;;;;9.87;6.43;;;1.90;99.90;;;;;;5032430;28;20026;-75
2021/04/08 08:10:59;;;;;;;10.32;5.97;;;2.10;99.90;;;;;;5032600;28;20430;-75
2021/04/08 08:13:29;;;;;;;;;;;2.20;99.90;;;;;;5033263;28;20022;-75
2021/04/08 08:15:56;;;;;;;12.50;6.25;;;2.20;99.90;;;;;;5032366;28;19905;-75
2021/04/08 08:18:41;;;;;;;11.50;5.70;;;2.30;99.90;;;;;;5032763;28;20021;-75
2021/04/08 08:21:10;;;;;;;7.47;4.93;;;2.50;99.90;;;;;;5033290;28;20383;-74
2021/04/08 08:23:41;;;;;;;8.18;5.45;;;2.60;99.90;;;;;;5032068;28;20021;-75
2021/04/08 08:26:42;;;;;;;7.82;5.00;;;2.60;99.90;;;;;;5031715;28;20044;-76
2021/04/08 08:29:11;;;;;;;13.20;5.90;;;2.70;99.90;;;;;;5031030;28;20025;-75
2021/04/08 08:31:51;;;;;;;7.95;5.35;;;2.80;99.90;;;;;;5031021;28;20477;-72
2021/04/08 08:34:23;;;;;;;9.45;5.68;;;2.80;99.90;;;;;;5030610;28;20068;-73
2021/04/08 08:36:51;;;;;;;10.57;5.63;;;3.10;99.90;;;;;;5030666;28;20029;-72
2021/04/08 08:39:21;;;;;;;10.80;5.07;;;3.30;99.90;;;;;;5030784;28;20131;-73
2021/04/08 08:41:48;;;;;;;10.13;5.40;;;3.50;99.90;;;;;;5030677;28;20022;-72
2021/04/08 08:44:15;;;;;;;12.15;5.63;;;3.60;99.90;;;;;;5030711;28;20053;-73
2021/04/08 08:46:51;;;;;;;8.70;5.32;;;3.90;99.90;;;;;;5032135;28;20033;-72
2021/04/08 08:49:23;;;;;;;7.70;5.30;;;3.80;99.90;;;;;;5030737;28;20022;-74
2021/04/08 08:51:52;;;;;;;8.18;5.57;;;3.70;99.90;;;;;;5030720;28;20025;-75
2021/04/08 08:54:18;;;;;;;9.82;4.97;;;3.60;99.90;;;;;;5032666;28;20125;-73
2021/04/08 08:56:45;;;;;;;13.35;5.10;;;3.60;99.90;;;;;;5032730;28;20392;-73
2021/04/08 08:59:11;;;;;;;10.63;5.07;;;3.70;99.90;;;;;;5030638;28;20036;-74
2021/04/08 09:01:38;;;;;;;6.95;5.13;;;4.00;99.90;;;;;;5030747;28;20040;-74
2021/04/08 09:04:04;;;;;;;12.02;5.93;;;4.00;99.90;;;;;;5030231;28;20032;-74
2021/04/08 09:06:32;;;;;;;8.13;5.45;;;4.30;99.90;;;;;;5029986;28;20112;-74
2021/04/08 09:09:05;;;;;;;11.80;5.43;;;4.60;99.90;;;;;;5029579;28;20555;-75
2021/04/08 09:11:33;;;;;;;8.55;5.20;;;4.90;99.90;;;;;;5029931;28;20446;-75
2021/04/08 09:14:00;;;;;;;6.93;5.00;;;5.70;99.90;;;;;;5029889;28;20073;-74
2021/04/08 09:16:29;;;;;;;7.35;4.50;;;7.10;99.90;;;;;;5030038;28;20048;-73
2021/04/08 09:19:05;;;;;;;10.40;5.28;;;9.50;93.80;;;;;;5029770;28;20028;-72
2021/04/08 09:21:47;;;;;;;10.55;4.47;;;11.10;83.20;;;;;;5029661;28;20080;-74
2021/04/08 09:24:32;;;;;;;10.10;4.83;;;11.90;68.50;;;;;;5013437;28;20499;-73
2021/04/08 09:26:59;;;;;;;7.93;4.60;;;10.80;69.00;;;;;;5029719;28;20030;-73
2021/04/08 09:29:43;;;;;;;9.05;5.10;;;9.90;71.20;;;;;;5029753;28;20025;-73
2021/04/08 09:32:27;;;;;;;10.48;4.68;;;9.20;73.50;;;;;;5029711;28;20087;-74
2021/04/08 09:35:05;;;;;;;8.13;4.68;;;11.10;67.70;;;;;;5029401;28;20040;-73
2021/04/08 09:37:51;;;;;;;8.63;4.82;;;13.60;59.70;;;;;;5029607;28;20376;-73
2021/04/08 09:40:31;;;;;;;7.00;4.45;;;15.70;52.40;;;;;;5029414;28;20025;-73
2021/04/08 09:43:00;;;;;;;6.32;4.13;;;17.10;47.30;;;;;;5029315;28;20021;-74
2021/04/08 09:45:26;;;;;;;9.02;4.00;;;18.20;43.50;;;;;;5029447;28;20075;-74
2021/04/08 09:48:12;;;;;;;5.95;3.80;;;18.90;39.70;;;;;;5029331;28;20064;-72
2021/04/08 09:50:59;;;;;;;9.85;4.20;;;19.80;37.10;;;;;;5029322;28;20026;-73
2021/04/08 09:53:37;;;;;;;6.40;4.53;;;21.40;34.60;;;;;;5030737;28;20100;-73
2021/04/08 09:56:04;;;;;;;8.65;4.57;;;21.90;34.70;;;;;;5029114;28;20021;-73
2021/04/08 09:58:33;;;;;;;6.78;4.07;;;21.10;33.90;;;;;;5028918;28;20469;-72
2021/04/08 10:01:01;;;;;;;6.38;4.60;;;20.70;34.40;;;;;;5028887;28;20502;-71
2021/04/08 10:03:38;;;;;;;5.95;4.10;;;21.30;33.50;;;;;;5028599;28;20025;-71
2021/04/08 10:06:13;;;;;;;8.13;4.10;;;21.40;32.50;;;;;;5028742;28;20029;-71
2021/04/08 10:08:40;;;;;;;6.30;4.47;;;23.40;31.10;;;;;;5028905;28;20060;-72
2021/04/08 10:11:05;;;;;;;7.85;4.97;;;23.50;31.00;;;;;;5028828;28;20435;-71
2021/04/08 10:13:33;;;;;;;7.50;4.82;;;22.80;29.90;;;;;;5028669;28;20060;-71
2021/04/08 10:16:01;;;;;;;6.88;4.43;;;21.80;32.70;;;;;;5029287;28;20143;-71
2021/04/08 10:18:30;;;;;;;8.15;4.95;;;22.40;31.10;;;;;;5028610;28;20025;-71
2021/04/08 10:20:58;;;;;;;8.18;4.70;;;22.90;30.20;;;;;;5028149;28;20029;-72
2021/04/08 10:23:43;;;;;;;7.88;5.05;;;21.60;31.70;;;;;;5028832;28;20021;-72
2021/04/08 10:26:11;;;;;;;5.85;4.10;;;20.40;34.80;;;;;;5028964;28;20079;-71
2021/04/08 10:28:48;;;;;;;5.20;4.70;;;20.80;33.40;;;;;;5029216;28;20061;-71
2021/04/08 10:31:15;;;;;;;5.15;4.28;;;21.00;32.20;;;;;;5030032;28;20031;-71
2021/04/08 10:33:41;;;;;;;6.82;4.95;;;22.00;30.80;;;;;;5029758;28;20095;-72
2021/04/08 10:36:06;;;;;;;5.55;4.85;;;22.20;30.70;;;;;;5030499;28;20026;-71
2021/04/08 10:38:32;;;;;;;7.70;4.28;;;22.70;30.00;;;;;;5030703;28;20498;-71
2021/04/08 10:40:58;;;;;;;5.25;3.65;;;22.00;30.30;;;;;;5031303;28;20022;-71
2021/04/08 10:43:24;;;;;;;5.13;4.05;;;22.20;31.70;;;;;;5028249;28;20014;-72
2021/04/08 10:45:58;;;;;;;5.45;4.50;;;23.80;29.30;;;;;;5028458;28;20025;-71
2021/04/08 10:48:26;;;;;;;7.88;4.63;;;22.90;29.50;;;;;;5028069;28;20503;-72
2021/04/08 10:50:52;;;;;;;6.50;4.47;;;23.20;29.70;;;;;;5028244;28;20034;-72
2021/04/08 10:53:25;;;;;;;6.65;4.82;;;21.70;30.10;;;;;;5028301;28;20483;-70
2021/04/08 10:55:52;;;;;;;5.93;3.95;;;18.30;34.40;;;;;;5028495;28;20037;-70
2021/04/08 10:58:26;;;;;;;5.57;4.30;;;16.20;39.60;;;;;;5028261;28;20474;-71
2021/04/08 11:00:57;;;;;;;8.45;4.53;;;15.30;41.90;;;;;;5028468;28;20030;-71
2021/04/08 11:03:23;;;;;;;5.85;4.50;;;14.20;43.10;;;;;;5028056;28;20049;-69
2021/04/08 11:05:50;;;;;;;10.35;5.05;;;13.60;44.80;;;;;;5028111;28;20029;-69
2021/04/08 11:08:15;;;;;;;5.35;4.07;;;12.30;46.80;;;;;;5028243;28;20535;-70
2021/04/08 11:10:42;;;;;;;6.68;4.00;;;11.80;48.60;;;;;;5028296;28;20057;-70
2021/04/08 11:13:10;;;;;;;6.63;4.35;;;13.00;47.60;;;;;;5027970;28;20052;-70
2021/04/08 11:15:38;;;;;;;7.65;4.50;;;14.00;44.00;;;;;;5027916;28;20025;-71
2021/04/08 11:18:13;;;;;;;5.35;4.32;;;15.40;42.50;;;;;;5027828;28;20079;-70
2021/04/08 11:20:45;;;;;;;7.05;4.47;;;18.00;39.10;;;;;;5029913;28;20029;-71
2021/04/08 11:23:12;;;;;;;6.15;3.40;;;19.00;35.30;;;;;;5027914;28;20030;-71
2021/04/08 11:25:39;;;;;;;6.10;4.10;;;17.30;35.60;;;;;;5028160;28;20113;-71
2021/04/08 11:28:06;;;;;;;6.28;4.35;;;14.90;39.40;;;;;;5027921;28;20485;-71
2021/04/08 11:30:37;;;;;;;6.53;4.40;;;13.90;41.90;;;;;;5028173;28;20475;-71
2021/04/08 11:33:05;;;;;;;9.00;4.68;;;15.00;41.60;;;;;;5059418;22;20402;-74
2021/04/08 11:35:41;;;;;;;6.32;5.05;;;15.80;38.70;;;;;;5092010;28;20028;-75
2021/04/08 11:38:28;;;;;;;5.97;4.75;;;14.90;40.50;;;;;;5092489;28;20133;-74
2021/04/08 11:41:00;;;;;;;5.45;4.30;;;14.20;43.00;;;;;;5090891;28;20043;-74
2021/04/08 11:43:32;;;;;;;6.57;4.40;;;13.50;44.40;;;;;;5091537;28;20032;-74
2021/04/08 11:46:03;;;;;;;10.30;4.10;;;12.70;45.00;;;;;;5091577;28;20024;-73
2021/04/08 11:48:44;;;;;;;6.18;4.22;;;12.20;46.80;;;;;;5091543;28;20016;-74
2021/04/08 11:51:11;;;;;;;5.93;4.22;;;11.40;47.40;;;;;;5091422;28;20023;-73
2021/04/08 11:53:42;;;;;;;5.38;4.07;;;10.70;49.20;;;;;;5091307;28;20024;-73
2021/04/08 11:56:28;;;;;;;5.95;4.20;;;9.80;50.80;;;;;;5091146;28;20024;-73
2021/04/08 11:59:21;;;;;;;9.38;5.15;;;9.90;52.50;;;;;;5091226;28;20031;-74
2021/04/08 12:01:49;;;;;;;8.80;4.97;;;10.60;51.80;;;;;;5091300;28;20076;-74
2021/04/08 12:04:17;;;;;;;7.47;5.00;;;10.10;51.10;;;;;;5091055;28;20024;-73
2021/04/08 12:06:46;;;;;;;8.23;5.13;;;9.50;53.60;;;;;;5091089;28;20017;-73
2021/04/08 12:09:12;;;;;;;6.90;5.10;;;9.40;54.90;;;;;;5091030;28;20487;-74
2021/04/08 12:11:56;;;;;;;7.60;5.30;;;9.90;54.60;;;;;;5091060;28;20027;-74
2021/04/08 12:14:23;;;;;;;8.98;4.78;;;11.80;50.00;;;;;;5090948;28;20028;-74
2021/04/08 12:17:08;;;;;;;7.75;5.05;;;12.80;45.60;;;;;;5090949;28;20049;-74
2021/04/08 12:19:35;;;;;;;7.80;4.57;;;12.80;45.20;;;;;;5090762;28;20020;-74
2021/04/08 12:22:10;;;;;;;6.28;4.15;;;12.00;48.20;;;;;;5090758;28;20035;-74
2021/04/08 12:24:37;;;;;;;5.32;3.85;;;11.00;48.10;;;;;;5090681;28;20497;-73
2021/04/08 12:27:14;;;;;;;8.25;5.18;;;10.10;49.20;;;;;;5090667;28;20020;-73
2021/04/08 12:29:39;;;;;;;6.90;4.30;;;9.50;52.70;;;;;;5090658;28;20027;-73
2021/04/08 12:32:05;;;;;;;6.65;4.13;;;9.10;52.70;;;;;;5092085;28;20028;-73
2021/04/08 12:34:31;;;;;;;5.88;4.50;;;8.70;54.30;;;;;;5090360;28;20045;-73
2021/04/08 12:36:58;;;;;;;6.00;4.43;;;8.60;56.20;;;;;;5090615;28;20404;-73
2021/04/08 12:39:24;;;;;;;8.18;5.35;;;8.50;55.80;;;;;;5090381;28;20095;-73
2021/04/08 12:41:49;;;;;;;10.75;5.20;;;8.40;56.10;;;;;;5090077;28;20409;-72
2021/04/08 12:44:15;;;;;;;9.07;5.35;;;9.10;55.80;;;;;;5089560;28;20059;-73
2021/04/08 12:46:41;;;;;;;7.70;4.93;;;10.30;53.70;;;;;;5090417;28;20507;-73
2021/04/08 12:49:06;;;;;;;6.85;4.43;;;10.50;52.20;;;;;;5090380;28;20027;-73
2021/04/08 12:51:32;;;;;;;11.20;4.35;;;10.40;52.20;;;;;;5090858;28;20016;-73
2021/04/08 12:53:57;;;;;;;6.78;4.82;;;10.30;52.60;;;;;;5090634;28;20020;-73
2021/04/08 12:56:24;;;;;;;8.80;5.22;;;10.00;52.90;;;;;;5090206;28;20027;-72
2021/04/08 12:58:50;;;;;;;8.25;5.40;;;9.80;54.10;;;;;;5090116;28;20024;-73
2021/04/08 13:01:16;;;;;;;6.25;4.70;;;9.80;55.40;;;;;;5089908;28;20031;-73